TimePST,TemperatureF,Dew PointF,Humidity,Sea Level PressureIn,VisibilityMPH,Wind Direction,Wind SpeedMPH,Gust SpeedMPH,PrecipitationIn,Events,Conditions,WindDirDegrees,DateUTC
12:53 AM,39.9,33.1,77,30.22,8.0,Calm,Calm,-,N/A,,Clear,0,2013-12-27 08:53:00
1:53 AM,39.0,34.0,82,30.23,7.0,Calm,Calm,-,N/A,,Clear,0,2013-12-27 09:53:00
2:53 AM,37.9,32.0,79,30.24,7.0,Calm,Calm,-,N/A,,Clear,0,2013-12-27 10:53:00
3:53 AM,37.0,32.0,82,30.23,7.0,Calm,Calm,-,N/A,,Clear,0,2013-12-27 11:53:00
4:53 AM,34.0,28.9,82,30.23,8.0,East,4.6,-,N/A,,Clear,90,2013-12-27 12:53:00
5:53 AM,37.9,32.0,79,30.22,8.0,Calm,Calm,-,N/A,,Clear,0,2013-12-27 13:53:00
6:53 AM,37.0,30.9,79,30.23,7.0,Calm,Calm,-,N/A,,Clear,0,2013-12-27 14:53:00
7:53 AM,35.1,30.9,85,30.23,7.0,Calm,Calm,-,N/A,,Clear,0,2013-12-27 15:53:00
8:53 AM,39.9,35.1,83,30.25,6.0,WSW,3.5,-,N/A,,Haze,240,2013-12-27 16:53:00
9:53 AM,45.0,36.0,71,30.25,7.0,Calm,Calm,-,N/A,,Clear,0,2013-12-27 17:53:00
10:53 AM,51.1,37.9,61,30.23,7.0,West,4.6,-,N/A,,Clear,260,2013-12-27 18:53:00
11:53 AM,54.0,39.0,57,30.21,6.0,Calm,Calm,-,N/A,,Haze,0,2013-12-27 19:53:00
12:53 PM,60.1,39.0,46,30.19,6.0,WNW,3.5,-,N/A,,Haze,290,2013-12-27 20:53:00
1:53 PM,63.0,39.0,41,30.16,7.0,East,6.9,-,N/A,,Clear,90,2013-12-27 21:53:00
2:53 PM,61.0,39.9,46,30.15,6.0,East,10.4,-,N/A,,Haze,80,2013-12-27 22:53:00
3:53 PM,57.9,39.9,51,30.15,6.0,ENE,4.6,-,N/A,,Haze,60,2013-12-27 23:53:00
4:53 PM,55.0,39.9,57,30.12,7.0,NE,4.6,-,N/A,,Clear,40,2013-12-28 00:53:00
5:53 PM,55.0,39.9,57,30.16,7.0,NNW,4.6,-,N/A,,Clear,340,2013-12-28 01:53:00
6:53 PM,52.0,41.0,66,30.17,6.0,NW,3.5,-,N/A,,Haze,320,2013-12-28 02:53:00
7:53 PM,48.9,39.9,71,30.17,6.0,Calm,Calm,-,N/A,,Haze,0,2013-12-28 03:53:00
8:53 PM,43.0,37.0,80,30.16,6.0,ENE,3.5,-,N/A,,Haze,60,2013-12-28 04:53:00
9:53 PM,44.1,36.0,73,30.15,6.0,Calm,Calm,-,N/A,,Haze,0,2013-12-28 05:53:00
10:53 PM,39.0,34.0,82,30.14,6.0,Calm,Calm,-,N/A,,Haze,0,2013-12-28 06:53:00
11:53 PM,39.0,33.1,79,30.13,6.0,Calm,Calm,-,N/A,,Haze,0,2013-12-28 07:53:00